Time;durP1;ratioP1;P1;durP2;ratioP2;P2;SDS_P1;SDS_P2;PMS_P1;PMS_P2;Temp;Humidity;BMP_temperature;BMP_pressure;BME280_temperature;BME280_humidity;BME280_pressure;Samples;Min_cycle;Max_cycle;Signal;HPM_P1;HPM_P2
2023/08/11 00:02:22;;;;;;;;;;;18.30;91.80;;;;;;5089149;28;19916;-68
2023/08/11 00:04:49;;;;;;;;;;;18.20;91.70;;;;;;5088569;28;20348;-68
2023/08/11 00:07:15;;;;;;;;;;;18.20;91.90;;;;;;5088767;28;20003;-68
2023/08/11 00:09:40;;;;;;;;;;;18.20;91.90;;;;;;5089487;28;20333;-68
2023/08/11 00:12:06;;;;;;;;;;;18.20;91.70;;;;;;5090917;28;20003;-69
2023/08/11 00:14:32;;;;;;;;;;;18.20;91.90;;;;;;5089319;28;19916;-68
2023/08/11 00:16:58;;;;;;;;;;;18.10;91.90;;;;;;5083701;28;19918;-69
2023/08/11 00:19:23;;;;;;;;;;;18.10;91.90;;;;;;5109257;28;20364;-68
2023/08/11 00:21:49;;;;;;;;;;;18.10;92.00;;;;;;5109367;28;19957;-69
2023/08/11 00:24:14;;;;;;;;;;;18.10;92.00;;;;;;5102572;28;19916;-68
2023/08/11 00:26:40;;;;;;;;;;;18.10;92.00;;;;;;5070426;28;19994;-68
2023/08/11 00:29:05;;;;;;;;;;;18.10;92.00;;;;;;5071175;28;20568;-68
2023/08/11 00:31:31;;;;;;;;;;;18.10;92.10;;;;;;5087889;28;19923;-69
2023/08/11 00:33:56;;;;;;;;;;;18.00;92.20;;;;;;5088806;28;19912;-68
2023/08/11 00:36:22;;;;;;;;;;;18.00;92.20;;;;;;5088620;28;20368;-68
2023/08/11 00:38:49;;;;;;;;;;;18.00;92.30;;;;;;5072876;28;19913;-68
2023/08/11 00:41:16;;;;;;;;;;;17.90;92.20;;;;;;5078690;28;19938;-68
2023/08/11 00:43:42;;;;;;;;;;;17.90;92.20;;;;;;5088512;28;19912;-68
2023/08/11 00:46:11;;;;;;;;;;;17.90;92.30;;;;;;5089335;28;19934;-69
2023/08/11 00:48:43;;;;;;;;;;;17.90;92.20;;;;;;5088267;28;19926;-68
2023/08/11 00:51:12;;;;;;;;;;;17.90;92.30;;;;;;5088523;28;19912;-69
2023/08/11 00:53:37;;;;;;;;;;;17.80;92.30;;;;;;5096788;28;20396;-68
2023/08/11 00:56:03;;;;;;;;;;;17.80;92.40;;;;;;5088098;28;19918;-68
2023/08/11 00:58:30;;;;;;;;;;;17.80;92.40;;;;;;5088092;28;19908;-68
2023/08/11 01:00:56;;;;;;;;;;;17.80;92.40;;;;;;5070688;28;19912;-69
2023/08/11 01:03:21;;;;;;;;;;;17.80;92.50;;;;;;5087742;28;19958;-68
2023/08/11 01:05:51;;;;;;;;;;;17.70;92.50;;;;;;5087722;28;20315;-69
2023/08/11 01:08:25;;;;;;;;;;;17.70;92.50;;;;;;5088246;28;20543;-68
2023/08/11 01:10:51;;;;;;;;;;;17.70;92.60;;;;;;5069615;28;19924;-68
2023/08/11 01:13:17;;;;;;;;;;;17.70;92.50;;;;;;5087823;28;19912;-68
2023/08/11 01:15:48;;;;;;;;;;;17.70;92.60;;;;;;5087874;28;19920;-68
2023/08/11 01:18:14;;;;;;;;;;;17.70;92.60;;;;;;5088861;28;19919;-68
2023/08/11 01:20:39;;;;;;;;;;;17.60;92.60;;;;;;5087981;28;19916;-68
2023/08/11 01:23:06;;;;;;;;;;;17.60;92.60;;;;;;5092940;28;19912;-68
2023/08/11 01:25:32;;;;;;;;;;;17.60;92.70;;;;;;5090887;28;19916;-68
2023/08/11 01:27:59;;;;;;;;;;;17.60;92.70;;;;;;5088005;28;20327;-68
2023/08/11 01:30:25;;;;;;;;;;;17.60;92.60;;;;;;5087731;28;20560;-68
2023/08/11 01:32:54;;;;;;;;;;;17.60;92.80;;;;;;5077716;28;19951;-68
2023/08/11 01:35:20;;;;;;;;;;;17.50;92.70;;;;;;5085690;28;19965;-68
2023/08/11 01:37:46;;;;;;;;;;;17.50;92.60;;;;;;5065951;28;19908;-68
2023/08/11 01:40:13;;;;;;;;;;;17.50;92.90;;;;;;5067668;28;19909;-68
2023/08/11 01:42:40;;;;;;;;;;;17.50;92.80;;;;;;5050097;28;20027;-69
2023/08/11 01:45:07;;;;;;;;;;;17.40;92.80;;;;;;5091553;28;19933;-69
2023/08/11 01:47:33;;;;;;;;;;;17.50;92.80;;;;;;5091668;28;19920;-68
2023/08/11 01:50:00;;;;;;;;;;;17.40;92.80;;;;;;5092145;28;19916;-68
2023/08/11 01:52:26;;;;;;;;;;;17.40;92.90;;;;;;5073218;28;19946;-69
2023/08/11 01:54:51;;;;;;;;;;;17.40;92.90;;;;;;5100176;28;20533;-68
2023/08/11 01:57:17;;;;;;;;;;;17.40;92.90;;;;;;5092696;28;19916;-69
2023/08/11 01:59:43;;;;;;;;;;;17.40;93.00;;;;;;5091635;28;20018;-68
2023/08/11 02:02:08;;;;;;;;;;;17.30;93.00;;;;;;5091206;28;20293;-68
2023/08/11 02:04:34;;;;;;;;;;;17.40;92.90;;;;;;5091596;28;19919;-68
2023/08/11 02:06:59;;;;;;;;;;;17.30;92.90;;;;;;5092177;28;19916;-68
2023/08/11 02:09:25;;;;;;;;;;;17.30;92.90;;;;;;5111177;28;19998;-69
2023/08/11 02:11:51;;;;;;;;;;;17.30;92.90;;;;;;5111374;28;19916;-69
2023/08/11 02:14:16;;;;;;;;;;;17.30;92.90;;;;;;5085891;28;19935;-68
2023/08/11 02:16:42;;;;;;;;;;;17.30;93.00;;;;;;5071693;28;19919;-68
2023/08/11 02:19:08;;;;;;;;;;;17.20;93.00;;;;;;5078754;28;19928;-69
2023/08/11 02:21:37;;;;;;;;;;;17.20;93.10;;;;;;5090026;28;19919;-68
2023/08/11 02:24:03;;;;;;;;;;;17.20;93.00;;;;;;5100091;28;20422;-68
2023/08/11 02:26:29;;;;;;;;;;;17.20;93.00;;;;;;5077412;28;19919;-68
2023/08/11 02:28:54;;;;;;;;;;;17.20;93.10;;;;;;5069397;28;19916;-68
2023/08/11 02:31:20;;;;;;;;;;;17.10;93.20;;;;;;5070623;28;19916;-69
2023/08/11 02:33:45;;;;;;;;;;;17.10;93.10;;;;;;5074504;28;19960;-68
2023/08/11 02:36:11;;;;;;;;;;;17.10;93.20;;;;;;5090531;28;20261;-68
2023/08/11 02:38:36;;;;;;;;;;;17.10;93.20;;;;;;5090745;28;20376;-68
2023/08/11 02:41:03;;;;;;;;;;;17.10;93.20;;;;;;5102006;28;19915;-68
2023/08/11 02:43:28;;;;;;;;;;;17.10;93.20;;;;;;5090661;28;19916;-68
2023/08/11 02:45:54;;;;;;;;;;;17.00;93.20;;;;;;5090254;28;19912;-68
2023/08/11 02:48:19;;;;;;;;;;;17.10;93.20;;;;;;5090561;28;19923;-68
2023/08/11 02:50:45;;;;;;;;;;;17.00;93.20;;;;;;5090509;28;19943;-69
2023/08/11 02:53:10;;;;;;;;;;;17.00;93.40;;;;;;5096204;28;20254;-69
2023/08/11 02:55:36;;;;;;;;;;;17.00;93.40;;;;;;5092946;28;19912;-68
2023/08/11 02:58:01;;;;;;;;;;;16.90;93.50;;;;;;5072602;28;19922;-68
2023/08/11 03:00:28;;;;;;;;;;;16.90;93.50;;;;;;5090003;28;20025;-68
2023/08/11 03:02:54;;;;;;;;;;;16.90;93.60;;;;;;5072178;28;19995;-68
2023/08/11 03:05:20;;;;;;;;;;;16.90;93.30;;;;;;5090025;28;20048;-68
2023/08/11 03:07:45;;;;;;;;;;;17.00;93.50;;;;;;5090302;28;19923;-68
2023/08/11 03:10:11;;;;;;;;;;;16.90;93.40;;;;;;5090226;28;20657;-69
2023/08/11 03:12:36;;;;;;;;;;;16.90;93.50;;;;;;5091120;28;20662;-68
2023/08/11 03:15:04;;;;;;;;;;;16.90;93.50;;;;;;5089453;28;19935;-68
2023/08/11 03:17:30;;;;;;;;;;;16.90;93.60;;;;;;5089488;28;19919;-68
2023/08/11 03:19:56;;;;;;;;;;;16.90;93.70;;;;;;5089981;28;19908;-68
2023/08/11 03:22:21;;;;;;;;;;;16.90;93.70;;;;;;5090215;28;20355;-69
2023/08/11 03:24:47;;;;;;;;;;;16.80;93.50;;;;;;5090164;28;20468;-68
2023/08/11 03:27:12;;;;;;;;;;;16.80;93.60;;;;;;5051360;28;19956;-69
2023/08/11 03:29:38;;;;;;;;;;;16.80;93.50;;;;;;5079351;28;19923;-68
2023/08/11 03:32:04;;;;;;;;;;;16.80;93.60;;;;;;5089781;28;19919;-69
2023/08/11 03:34:30;;;;;;;;;;;16.70;93.80;;;;;;5089795;28;19938;-68
2023/08/11 03:36:55;;;;;;;;;;;16.80;93.60;;;;;;5089446;28;20332;-69
2023/08/11 03:39:21;;;;;;;;;;;16.80;93.90;;;;;;5089989;28;19939;-69
2023/08/11 03:41:46;;;;;;;;;;;16.70;93.90;;;;;;5089589;28;20734;-68
2023/08/11 03:44:12;;;;;;;;;;;16.70;93.90;;;;;;5077727;28;19913;-69
2023/08/11 03:46:37;;;;;;;;;;;16.70;93.80;;;;;;5090613;28;19912;-68
2023/08/11 03:49:03;;;;;;;;;;;16.60;93.70;;;;;;5089079;28;19963;-69
2023/08/11 03:51:28;;;;;;;;;;;16.70;93.80;;;;;;5089404;28;20365;-68
2023/08/11 03:53:54;;;;;;;;;;;16.70;94.00;;;;;;5097925;28;19921;-69
2023/08/11 03:56:19;;;;;;;;;;;16.60;94.10;;;;;;5089132;28;20474;-68
2023/08/11 03:58:45;;;;;;;;;;;16.60;93.90;;;;;;5089183;28;19915;-68
2023/08/11 04:01:12;;;;;;;;;;;16.60;94.00;;;;;;5085224;28;19981;-68
2023/08/11 04:03:37;;;;;;;;;;;16.60;94.00;;;;;;5088856;28;19912;-68
2023/08/11 04:06:03;;;;;;;;;;;16.60;94.00;;;;;;5088272;28;19943;-68
2023/08/11 04:08:29;;;;;;;;;;;16.60;93.90;;;;;;5088954;28;20026;-68
2023/08/11 04:10:55;;;;;;;;;;;16.60;94.00;;;;;;5088886;28;19912;-69
2023/08/11 04:13:20;;;;;;;;;;;16.60;94.00;;;;;;5088704;28;19915;-68
2023/08/11 04:15:47;;;;;;;;;;;16.60;94.10;;;;;;5098816;28;20288;-68
2023/08/11 04:18:12;;;;;;;;;;;16.50;94.20;;;;;;5107544;28;20432;-69
2023/08/11 04:20:39;;;;;;;;;;;16.50;94.10;;;;;;5109301;28;19912;-68
2023/08/11 04:23:05;;;;;;;;;;;16.50;94.00;;;;;;5109196;28;19911;-68
2023/08/11 04:25:30;;;;;;;;;;;16.50;93.90;;;;;;5092175;28;20369;-68
2023/08/11 04:27:56;;;;;;;;;;;16.50;94.10;;;;;;5089179;28;19932;-68
2023/08/11 04:30:21;;;;;;;;;;;16.50;94.10;;;;;;5086606;28;19912;-68
2023/08/11 04:32:47;;;;;;;;;;;16.50;93.90;;;;;;5088901;28;19915;-69
2023/08/11 04:35:13;;;;;;;;;;;16.50;94.00;;;;;;5098584;28;19915;-68
2023/08/11 04:37:39;;;;;;;;;;;16.50;94.00;;;;;;5097015;28;19912;-68
2023/08/11 04:40:09;;;;;;;;;;;16.40;94.00;;;;;;5068489;28;19919;-68
2023/08/11 04:42:34;;;;;;;;;;;16.40;94.20;;;;;;5068225;28;19913;-68
2023/08/11 04:45:00;;;;;;;;;;;16.40;94.10;;;;;;5087212;28;20280;-68
2023/08/11 04:47:25;;;;;;;;;;;16.40;94.30;;;;;;5088086;28;19912;-68
2023/08/11 04:49:51;;;;;;;;;;;16.40;94.10;;;;;;5069820;28;20369;-69
2023/08/11 04:52:17;;;;;;;;;;;16.40;94.00;;;;;;5089923;28;19950;-68
2023/08/11 04:54:42;;;;;;;;;;;16.40;94.10;;;;;;5078778;28;19994;-68
2023/08/11 04:57:08;;;;;;;;;;;16.40;94.00;;;;;;5088081;28;20440;-68
2023/08/11 04:59:33;;;;;;;;;;;16.40;94.40;;;;;;5088445;28;19916;-68
2023/08/11 05:02:00;;;;;;;;;;;16.40;94.20;;;;;;5087697;28;19919;-69
2023/08/11 05:04:25;;;;;;;;;;;16.40;94.10;;;;;;5087703;28;20387;-69
2023/08/11 05:06:51;;;;;;;;;;;16.40;94.10;;;;;;5087823;28;19912;-68
2023/08/11 05:09:16;;;;;;;;;;;16.30;94.20;;;;;;5089332;28;20536;-68
2023/08/11 05:11:42;;;;;;;;;;;16.40;94.20;;;;;;5070181;28;19916;-68
2023/08/11 05:14:07;;;;;;;;;;;16.40;94.20;;;;;;5088099;28;19919;-68
2023/08/11 05:16:33;;;;;;;;;;;16.40;94.10;;;;;;5087915;28;19911;-68
2023/08/11 05:18:58;;;;;;;;;;;16.40;94.10;;;;;;5087587;28;19958;-68
2023/08/11 05:21:24;;;;;;;;;;;16.40;94.00;;;;;;5087967;28;19912;-69
2023/08/11 05:23:51;;;;;;;;;;;16.40;94.10;;;;;;5096332;28;20306;-68
2023/08/11 05:26:16;;;;;;;;;;;16.40;94.00;;;;;;5088674;28;19927;-68
2023/08/11 05:28:42;;;;;;;;;;;16.40;94.00;;;;;;5088076;28;19916;-68
2023/08/11 05:31:08;;;;;;;;;;;16.40;94.10;;;;;;5085797;28;20381;-68
2023/08/11 05:33:34;;;;;;;;;;;16.30;94.10;;;;;;5087613;28;19958;-69
2023/08/11 05:36:00;;;;;;;;;;;16.30;94.10;;;;;;5087675;28;20352;-68
2023/08/11 05:38:25;;;;;;;;;;;16.40;94.10;;;;;;5087724;28;20347;-69
2023/08/11 05:40:51;;;;;;;;;;;16.30;94.10;;;;;;5070697;28;20532;-69
2023/08/11 05:43:17;;;;;;;;;;;16.40;94.10;;;;;;5087732;28;20553;-68
2023/08/11 05:45:43;;;;;;;;;;;16.30;94.10;;;;;;5087311;28;19912;-69
2023/08/11 05:48:09;;;;;;;;;;;16.30;94.10;;;;;;5087686;28;19927;-68
2023/08/11 05:50:34;;;;;;;;;;;16.40;94.10;;;;;;5087734;28;19912;-68
2023/08/11 05:52:59;;;;;;;;;;;16.40;94.10;;;;;;5091918;28;19951;-68
2023/08/11 05:55:25;;;;;;;;;;;16.40;94.10;;;;;;5091392;28;20365;-68
2023/08/11 05:57:51;;;;;;;;;;;16.40;94.10;;;;;;5090444;28;19923;-68
2023/08/11 06:00:18;;;;;;;;;;;16.40;94.10;;;;;;5087143;28;20736;-68
2023/08/11 06:02:44;;;;;;;;;;;16.40;94.10;;;;;;5068577;28;19920;-68
2023/08/11 06:05:12;;;;;;;;;;;16.40;94.10;;;;;;5086931;28;19919;-68
2023/08/11 06:07:38;;;;;;;;;;;16.40;94.10;;;;;;5087303;28;20353;-68
2023/08/11 06:10:04;;;;;;;;;;;16.40;94.10;;;;;;5093086;28;19912;-69
2023/08/11 06:12:30;;;;;;;;;;;16.40;94.10;;;;;;5107920;28;19912;-69
2023/08/11 06:14:56;;;;;;;;;;;16.40;94.10;;;;;;5087254;28;20529;-69
2023/08/11 06:17:21;;;;;;;;;;;16.50;94.00;;;;;;5068739;28;19951;-68
2023/08/11 06:19:47;;;;;;;;;;;16.50;94.10;;;;;;5087226;28;19916;-69
2023/08/11 06:22:13;;;;;;;;;;;16.50;94.00;;;;;;5087249;28;19986;-68
2023/08/11 06:24:38;;;;;;;;;;;16.40;94.00;;;;;;5095822;28;19920;-68
2023/08/11 06:27:04;;;;;;;;;;;16.50;94.00;;;;;;5087314;28;19952;-68
2023/08/11 06:29:29;;;;;;;;;;;16.50;94.00;;;;;;5090029;28;20405;-69
2023/08/11 06:31:55;;;;;;;;;;;16.50;94.00;;;;;;5089303;28;20362;-68
2023/08/11 06:34:21;;;;;;;;;;;16.50;93.90;;;;;;5090179;28;20404;-68
2023/08/11 06:36:47;;;;;;;;;;;16.50;93.90;;;;;;5089983;28;21419;-69
2023/08/11 06:39:13;;;;;;;;;;;16.60;93.90;;;;;;5087939;28;19916;-68
2023/08/11 06:41:38;;;;;;;;;;;16.60;93.90;;;;;;5090200;28;19923;-68
2023/08/11 06:44:07;;;;;;;;;;;16.60;93.80;;;;;;5090535;28;19965;-68
2023/08/11 06:46:33;;;;;;;;;;;16.60;93.80;;;;;;5091136;28;19927;-68
2023/08/11 06:48:59;;;;;;;;;;;16.70;93.80;;;;;;5090885;28;19916;-68
2023/08/11 06:51:24;;;;;;;;;;;16.70;93.70;;;;;;5091717;28;19981;-68
2023/08/11 06:53:50;;;;;;;;;;;16.60;93.70;;;;;;5092316;28;19912;-68
2023/08/11 06:56:15;;;;;;;;;;;16.70;93.70;;;;;;5091911;28;19912;-68
2023/08/11 06:58:41;;;;;;;;;;;16.70;93.70;;;;;;5091797;28;20637;-68
2023/08/11 07:01:06;;;;;;;;;;;16.70;93.70;;;;;;5083233;28;19938;-69
2023/08/11 07:03:33;;;;;;;;;;;16.70;93.60;;;;;;5091068;28;19928;-68
2023/08/11 07:05:59;;;;;;;;;;;16.80;93.60;;;;;;5089495;28;19912;-69
2023/08/11 07:08:24;;;;;;;;;;;16.80;93.60;;;;;;5088158;28;19989;-69
2023/08/11 07:10:50;;;;;;;;;;;16.90;93.50;;;;;;5089257;28;20714;-69
2023/08/11 07:13:15;;;;;;;;;;;16.80;93.50;;;;;;5084734;28;19916;-69
2023/08/11 07:15:42;;;;;;;;;;;16.90;93.40;;;;;;5066857;28;19919;-68
2023/08/11 07:18:08;;;;;;;;;;;16.90;93.40;;;;;;5089879;28;20365;-69
2023/08/11 07:20:33;;;;;;;;;;;16.90;93.50;;;;;;5091394;28;19923;-68
2023/08/11 07:22:59;;;;;;;;;;;17.00;93.30;;;;;;5102681;28;19915;-68
2023/08/11 07:25:24;;;;;;;;;;;17.00;93.30;;;;;;5095490;28;19954;-68
2023/08/11 07:27:50;;;;;;;;;;;17.00;93.30;;;;;;5089934;28;19925;-68
2023/08/11 07:30:15;;;;;;;;;;;17.10;93.30;;;;;;5089302;28;20019;-69
2023/08/11 07:32:41;;;;;;;;;;;17.10;93.30;;;;;;5071669;28;19964;-68
2023/08/11 07:35:07;;;;;;;;;;;17.10;93.40;;;;;;5092748;28;19919;-68
2023/08/11 07:37:32;;;;;;;;;;;17.10;93.10;;;;;;5084622;28;20007;-68
2023/08/11 07:39:58;;;;;;;;;;;17.20;93.10;;;;;;5069427;28;19920;-68
2023/08/11 07:42:23;;;;;;;;;;;17.20;93.00;;;;;;5069582;28;19939;-68
2023/08/11 07:44:49;;;;;;;;;;;17.30;92.90;;;;;;5069508;28;20377;-68
2023/08/11 07:47:14;;;;;;;;;;;17.30;93.10;;;;;;5068958;28;20348;-69
2023/08/11 07:49:40;;;;;;;;;;;17.30;92.90;;;;;;5069291;28;20003;-68
2023/08/11 07:52:05;;;;;;;;;;;17.30;92.90;;;;;;5080198;28;19973;-69
2023/08/11 07:54:31;;;;;;;;;;;17.40;92.90;;;;;;5079992;28;19908;-68
2023/08/11 07:56:56;;;;;;;;;;;17.40;92.90;;;;;;5089347;28;19912;-69
2023/08/11 07:59:22;;;;;;;;;;;17.40;92.90;;;;;;5089482;28;19992;-68
2023/08/11 08:01:48;;;;;;;;;;;17.50;92.80;;;;;;5081296;28;19919;-68
2023/08/11 08:04:13;;;;;;;;;;;17.50;92.80;;;;;;5088215;28;19912;-68
2023/08/11 08:06:45;;;;;;;;;;;17.60;92.80;;;;;;5070601;28;19916;-68
2023/08/11 08:09:12;;;;;;;;;;;17.60;92.80;;;;;;5090201;28;20373;-68
2023/08/11 08:11:38;;;;;;;;;;;17.70;92.70;;;;;;5087750;28;19912;-68
2023/08/11 08:14:03;;;;;;;;;;;17.70;92.70;;;;;;5070086;28;19956;-68
2023/08/11 08:16:29;;;;;;;;;;;17.70;92.70;;;;;;5087194;28;19963;-68
2023/08/11 08:18:54;;;;;;;;;;;17.80;92.70;;;;;;5078975;28;20449;-69
2023/08/11 08:21:20;;;;;;;;;;;17.80;92.60;;;;;;5076948;28;19912;-68
2023/08/11 08:23:47;;;;;;;;;;;17.80;92.60;;;;;;5078675;28;19908;-68
2023/08/11 08:26:12;;;;;;;;;;;17.90;92.70;;;;;;5081270;28;20326;-68
2023/08/11 08:28:38;;;;;;;;;;;17.90;92.60;;;;;;5066964;28;19970;-68
2023/08/11 08:31:05;;;;;;;;;;;18.00;92.50;;;;;;5084088;28;19961;-69
2023/08/11 08:33:31;;;;;;;;;;;18.00;92.50;;;;;;5106704;28;20006;-69
2023/08/11 08:35:56;;;;;;;;;;;18.00;92.50;;;;;;5087997;28;20457;-68
2023/08/11 08:38:22;;;;;;;;;;;18.10;92.50;;;;;;5081213;28;19969;-68
2023/08/11 08:40:48;;;;;;;;;;;18.10;92.50;;;;;;5067980;28;20014;-68
2023/08/11 08:43:13;;;;;;;;;;;18.20;92.50;;;;;;5068145;28;19966;-68
2023/08/11 08:45:41;;;;;;;;;;;18.20;92.60;;;;;;5094719;28;19916;-68
2023/08/11 08:48:09;;;;;;;;;;;18.30;92.60;;;;;;5108693;28;20654;-68
2023/08/11 08:50:35;;;;;;;;;;;18.30;92.40;;;;;;5108519;28;19912;-68
2023/08/11 08:53:01;;;;;;;;;;;18.40;92.40;;;;;;5107752;28;20383;-68
2023/08/11 08:55:26;;;;;;;;;;;18.40;92.30;;;;;;5073741;28;19951;-68
2023/08/11 08:57:52;;;;;;;;;;;18.50;92.30;;;;;;5088029;28;19953;-68
2023/08/11 09:00:18;;;;;;;;;;;18.50;92.20;;;;;;5084360;28;19973;-68
2023/08/11 09:02:45;;;;;;;;;;;18.60;92.20;;;;;;5087690;28;20361;-69
2023/08/11 09:05:12;;;;;;;;;;;18.60;92.20;;;;;;5069217;28;20380;-69
2023/08/11 09:07:38;;;;;;;;;;;18.60;92.20;;;;;;5087420;28;19978;-68
2023/08/11 09:10:04;;;;;;;;;;;18.70;92.20;;;;;;5087275;28;19919;-68
2023/08/11 09:12:29;;;;;;;;;;;18.70;92.20;;;;;;5087860;28;19922;-68
2023/08/11 09:14:55;;;;;;;;;;;18.80;92.20;;;;;;5068852;28;19919;-68
2023/08/11 09:17:21;;;;;;;;;;;18.80;92.20;;;;;;5095722;28;19990;-68
2023/08/11 09:19:51;;;;;;;;;;;18.80;92.10;;;;;;5108379;28;19915;-69
2023/08/11 09:22:22;;;;;;;;;;;18.90;92.20;;;;;;5108367;28;19911;-68
2023/08/11 09:24:47;;;;;;;;;;;18.90;91.90;;;;;;5088089;28;19924;-69
2023/08/11 09:27:13;;;;;;;;;;;19.00;92.00;;;;;;5087117;28;19920;-69
2023/08/11 09:29:38;;;;;;;;;;;19.00;92.10;;;;;;5068569;28;19915;-69
2023/08/11 09:32:07;;;;;;;;;;;19.10;92.00;;;;;;5071188;28;19922;-68
2023/08/11 09:34:33;;;;;;;;;;;19.10;91.80;;;;;;5087135;28;19916;-68
2023/08/11 09:36:59;;;;;;;;;;;19.20;91.90;;;;;;5086789;28;19935;-68
2023/08/11 09:39:27;;;;;;;;;;;19.20;91.90;;;;;;5087256;28;20396;-68
2023/08/11 09:41:52;;;;;;;;;;;19.30;91.70;;;;;;5086825;28;19919;-68
2023/08/11 09:44:18;;;;;;;;;;;19.30;91.60;;;;;;5069118;28;19912;-69
2023/08/11 09:46:44;;;;;;;;;;;19.40;91.70;;;;;;5087044;28;19912;-68
2023/08/11 09:49:10;;;;;;;;;;;19.50;91.60;;;;;;5088073;28;20443;-68
2023/08/11 09:51:36;;;;;;;;;;;19.50;91.60;;;;;;5069019;28;20003;-69
2023/08/11 09:54:04;;;;;;;;;;;19.60;91.50;;;;;;5095953;28;20559;-69
2023/08/11 09:56:31;;;;;;;;;;;19.60;91.50;;;;;;5098181;28;20326;-68
2023/08/11 09:58:57;;;;;;;;;;;19.70;91.60;;;;;;5107868;28;19907;-69
2023/08/11 10:01:25;;;;;;;;;;;19.70;91.50;;;;;;5094582;28;19978;-69
2023/08/11 10:03:52;;;;;;;;;;;19.80;91.40;;;;;;5090629;28;19912;-69
2023/08/11 10:06:23;;;;;;;;;;;19.90;91.30;;;;;;5104592;28;19919;-69
2023/08/11 10:08:50;;;;;;;;;;;20.00;91.00;;;;;;5090929;28;20497;-68
2023/08/11 10:11:16;;;;;;;;;;;20.00;90.90;;;;;;5100852;28;19912;-69
2023/08/11 10:13:42;;;;;;;;;;;20.20;91.00;;;;;;5094074;28;19923;-68
2023/08/11 10:16:08;;;;;;;;;;;20.40;91.00;;;;;;5090224;28;19911;-69
2023/08/11 10:18:34;;;;;;;;;;;20.60;90.50;;;;;;5090719;28;19916;-68
2023/08/11 10:20:59;;;;;;;;;;;20.90;90.10;;;;;;5091221;28;20006;-73
2023/08/11 10:23:26;;;;;;;;;;;20.90;89.80;;;;;;5098753;28;20026;-72
2023/08/11 10:25:52;;;;;;;;;;;21.10;89.90;;;;;;5091207;28;20339;-72
2023/08/11 10:28:18;;;;;;;;;;;21.20;89.50;;;;;;5091004;28;19969;-73
2023/08/11 10:30:53;;;;;;;;;;;21.40;88.90;;;;;;5090906;28;19944;-73
2023/08/11 10:33:19;;;;;;;;;;;21.50;88.50;;;;;;5091154;28;19919;-73
2023/08/11 10:35:51;;;;;;;;;;;21.60;88.00;;;;;;5090986;28;19916;-73
2023/08/11 10:38:22;;;;;;;;;;;21.70;87.50;;;;;;5087160;28;19912;-72
2023/08/11 10:40:48;;;;;;;;;;;21.80;87.40;;;;;;5072649;28;19912;-73
2023/08/11 10:43:16;;;;;;;;;;;22.00;86.60;;;;;;5090773;28;19919;-72
2023/08/11 10:45:42;;;;;;;;;;;22.10;86.20;;;;;;5090646;28;20355;-72
2023/08/11 10:48:08;;;;;;;;;;;22.30;85.90;;;;;;5090783;28;19916;-72
2023/08/11 10:50:35;;;;;;;;;;;22.30;86.00;;;;;;5090554;28;19912;-73
2023/08/11 10:53:19;;;;;;;;;;;22.40;85.80;;;;;;5098426;28;19973;-72
2023/08/11 10:56:00;;;;;;;;;;;22.40;85.80;;;;;;5091459;28;19912;-73
2023/08/11 10:58:28;;;;;;;;;;;22.60;84.80;;;;;;5072231;28;19920;-73
2023/08/11 11:00:54;;;;;;;;;;;22.70;84.30;;;;;;5082127;28;19913;-73
2023/08/11 11:03:20;;;;;;;;;;;22.80;84.30;;;;;;5072185;28;19912;-72
2023/08/11 11:05:45;;;;;;;;;;;22.90;83.40;;;;;;5071630;28;19908;-73
2023/08/11 11:08:11;;;;;;;;;;;23.00;82.90;;;;;;5071333;28;19939;-74
2023/08/11 11:10:37;;;;;;;;;;;23.10;81.80;;;;;;5090332;28;19915;-73
2023/08/11 11:13:02;;;;;;;;;;;23.20;81.00;;;;;;5109806;28;19962;-72
2023/08/11 11:15:31;;;;;;;;;;;23.30;80.90;;;;;;5103063;28;20023;-71
2023/08/11 11:17:58;;;;;;;;;;;23.40;80.20;;;;;;5090081;28;19955;-72
2023/08/11 11:20:23;;;;;;;;;;;23.50;79.90;;;;;;5071203;28;19912;-71
2023/08/11 11:22:49;;;;;;;;;;;23.60;78.80;;;;;;5092914;28;19970;-72
2023/08/11 11:25:16;;;;;;;;;;;23.70;79.50;;;;;;5097423;28;19924;-72
2023/08/11 11:27:42;;;;;;;;;;;23.80;79.20;;;;;;5085865;28;19912;-72
2023/08/11 11:30:08;;;;;;;;;;;23.90;77.20;;;;;;5088946;28;20380;-72
2023/08/11 11:32:33;;;;;;;;;;;24.10;76.90;;;;;;5089119;28;19912;-72
2023/08/11 11:34:59;;;;;;;;;;;24.10;76.60;;;;;;5088998;28;19965;-72
2023/08/11 11:37:25;;;;;;;;;;;24.20;76.90;;;;;;5077507;28;19978;-72
2023/08/11 11:39:53;;;;;;;;;;;24.30;76.50;;;;;;5068675;28;19916;-71
2023/08/11 11:42:18;;;;;;;;;;;24.30;76.20;;;;;;5090060;28;19916;-72
2023/08/11 11:44:44;;;;;;;;;;;24.40;76.80;;;;;;5088752;28;19918;-72
2023/08/11 11:47:10;;;;;;;;;;;24.40;77.30;;;;;;5088541;28;19989;-72
2023/08/11 11:49:35;;;;;;;;;;;24.50;76.30;;;;;;5088881;28;19912;-72
2023/08/11 11:52:01;;;;;;;;;;;24.50;77.10;;;;;;5088897;28;19958;-72
2023/08/11 11:54:27;;;;;;;;;;;24.60;75.80;;;;;;5097018;28;20311;-72
2023/08/11 11:56:53;;;;;;;;;;;24.60;76.40;;;;;;5087966;28;20431;-72
2023/08/11 11:59:20;;;;;;;;;;;24.70;77.50;;;;;;5070018;28;19959;-73
2023/08/11 12:01:46;;;;;;;;;;;24.80;76.80;;;;;;5068407;28;19909;-72
2023/08/11 12:04:12;;;;;;;;;;;24.90;75.60;;;;;;5058102;28;19912;-72
2023/08/11 12:06:37;;;;;;;;;;;25.10;75.90;;;;;;5087871;28;19912;-72
2023/08/11 12:09:08;;;;;;;;;;;25.10;76.90;;;;;;5089991;28;19919;-71
2023/08/11 12:11:34;;;;;;;;;;;25.10;73.80;;;;;;5088852;28;20495;-72
2023/08/11 12:14:01;;;;;;;;;;;25.30;76.90;;;;;;5087768;28;19923;-72
2023/08/11 12:16:27;;;;;;;;;;;25.30;76.50;;;;;;5087578;28;19908;-72
2023/08/11 12:18:53;;;;;;;;;;;25.30;76.80;;;;;;5087793;28;19947;-72
2023/08/11 12:21:18;;;;;;;;;;;25.40;75.50;;;;;;5087863;28;19955;-72
2023/08/11 12:23:44;;;;;;;;;;;25.40;77.60;;;;;;5090562;28;20020;-71
2023/08/11 12:26:09;;;;;;;;;;;25.40;75.70;;;;;;5088328;28;19926;-71
2023/08/11 12:28:35;;;;;;;;;;;25.60;76.00;;;;;;5088704;28;19916;-72
2023/08/11 12:31:02;;;;;;;;;;;25.70;75.00;;;;;;5088361;28;19917;-72
2023/08/11 12:33:28;;;;;;;;;;;25.80;74.20;;;;;;5088757;28;19985;-72
2023/08/11 12:35:54;;;;;;;;;;;25.80;75.20;;;;;;5082944;28;19917;-71
2023/08/11 12:38:20;;;;;;;;;;;25.90;75.30;;;;;;5090767;28;19923;-72
2023/08/11 12:40:46;;;;;;;;;;;25.90;75.90;;;;;;5088740;28;19995;-71
2023/08/11 12:43:12;;;;;;;;;;;25.90;76.70;;;;;;5088718;28;19999;-72
2023/08/11 12:45:40;;;;;;;;;;;26.00;76.60;;;;;;5088337;28;19952;-72
2023/08/11 12:48:06;;;;;;;;;;;26.00;77.30;;;;;;5088237;28;19916;-72
2023/08/11 12:50:32;;;;;;;;;;;26.10;76.10;;;;;;5088080;28;19920;-72
2023/08/11 12:52:57;;;;;;;;;;;26.10;76.70;;;;;;5092422;28;19965;-72
2023/08/11 12:55:24;;;;;;;;;;;26.20;76.90;;;;;;5092584;28;19920;-71
2023/08/11 12:57:50;;;;;;;;;;;26.20;76.80;;;;;;5088777;28;20323;-72
2023/08/11 13:00:16;;;;;;;;;;;26.30;73.90;;;;;;5070033;28;20268;-71
2023/08/11 13:02:42;;;;;;;;;;;26.30;75.10;;;;;;5088276;28;19913;-71
2023/08/11 13:05:08;;;;;;;;;;;26.40;75.20;;;;;;5069591;28;19912;-73
2023/08/11 13:07:33;;;;;;;;;;;26.40;77.50;;;;;;5087557;28;19916;-72
2023/08/11 13:09:58;;;;;;;;;;;26.40;77.00;;;;;;5089129;28;19916;-72
2023/08/11 13:12:24;;;;;;;;;;;26.50;77.80;;;;;;5088210;28;19919;-72
2023/08/11 13:14:49;;;;;;;;;;;26.50;73.30;;;;;;5080786;28;20283;-71
2023/08/11 13:17:15;;;;;;;;;;;26.50;75.60;;;;;;5087730;28;20546;-72
2023/08/11 13:19:40;;;;;;;;;;;26.60;77.80;;;;;;5087647;28;20420;-72
2023/08/11 13:22:07;;;;;;;;;;;26.60;78.80;;;;;;5088114;28;19916;-72
2023/08/11 13:24:33;;;;;;;;;;;26.60;77.30;;;;;;5096115;28;20319;-72
2023/08/11 13:26:59;;;;;;;;;;;26.70;76.40;;;;;;5088680;28;19916;-72
2023/08/11 13:29:24;;;;;;;;;;;26.80;77.70;;;;;;5087731;28;19916;-72
2023/08/11 13:31:50;;;;;;;;;;;26.90;74.90;;;;;;5087741;28;19948;-72
2023/08/11 13:34:15;;;;;;;;;;;26.90;74.90;;;;;;5087865;28;19912;-72
2023/08/11 13:36:41;;;;;;;;;;;26.90;75.30;;;;;;5082214;28;19921;-73
2023/08/11 13:39:08;;;;;;;;;;;27.00;76.60;;;;;;5067385;28;19926;-72
2023/08/11 13:41:34;;;;;;;;;;;27.00;76.30;;;;;;5068118;28;19956;-72
2023/08/11 13:44:00;;;;;;;;;;;27.00;74.10;;;;;;5106299;28;20363;-72
2023/08/11 13:46:25;;;;;;;;;;;27.10;75.00;;;;;;5107682;28;19908;-72
2023/08/11 13:48:51;;;;;;;;;;;27.20;75.30;;;;;;5107970;28;19911;-72
2023/08/11 13:51:16;;;;;;;;;;;27.20;77.20;;;;;;5090539;28;19957;-72
2023/08/11 13:53:42;;;;;;;;;;;27.30;75.40;;;;;;5095829;28;19965;-72
2023/08/11 13:56:08;;;;;;;;;;;27.20;73.70;;;;;;5087089;28;19989;-72
2023/08/11 13:58:35;;;;;;;;;;;27.30;77.30;;;;;;5090489;28;19926;-73
2023/08/11 14:01:01;;;;;;;;;;;27.20;76.30;;;;;;5097808;28;19977;-72
2023/08/11 14:03:27;;;;;;;;;;;27.30;76.90;;;;;;5087108;28;19908;-71
2023/08/11 14:05:53;;;;;;;;;;;27.30;78.20;;;;;;5087325;28;20007;-72
2023/08/11 14:08:19;;;;;;;;;;;27.30;78.10;;;;;;5087413;28;20348;-72
2023/08/11 14:10:45;;;;;;;;;;;27.30;77.10;;;;;;5087733;28;19912;-72